Time;durP1;ratioP1;P1;durP2;ratioP2;P2;SDS_P1;SDS_P2;PMS_P1;PMS_P2;Temp;Humidity;BMP_temperature;BMP_pressure;BME280_temperature;BME280_humidity;BME280_pressure;Samples;Min_cycle;Max_cycle;Signal;HPM_P1;HPM_P2
2023/03/27 00:00:15;;;;;;;8.80;2.97;;;5.50;99.90;;;-141.84;81.57;19210.28;5070393;28;20316;-59
2023/03/27 00:02:45;;;;;;;8.30;3.50;;;5.40;99.90;;;-141.84;81.10;19161.50;5064999;28;20228;-59
2023/03/27 00:05:19;;;;;;;9.93;3.87;;;5.40;99.90;;;-141.84;81.95;19212.31;5050023;28;20587;-59
2023/03/27 00:07:48;;;;;;;12.33;4.10;;;5.30;99.90;;;-141.84;81.56;19194.03;5050105;28;20231;-59
2023/03/27 00:10:17;;;;;;;8.37;3.33;;;5.40;99.90;;;-141.84;80.64;19204.19;5055391;28;20231;-59
2023/03/27 00:12:45;;;;;;;11.67;3.63;;;5.50;99.90;;;-141.84;81.96;19198.09;5069842;28;20716;-58
2023/03/27 00:15:16;;;;;;;7.90;3.10;;;5.40;99.90;;;-141.84;80.99;19232.63;5070330;28;20204;-58
2023/03/27 00:17:48;;;;;;;9.53;3.17;;;5.50;99.90;;;-141.84;79.63;19200.13;5077308;28;20219;-59
2023/03/27 00:20:21;;;;;;;7.33;3.17;;;5.60;99.90;;;-141.84;78.92;19202.16;5089802;28;20636;-59
2023/03/27 00:22:54;;;;;;;8.60;3.57;;;5.60;99.90;;;-141.84;79.56;19216.38;5070995;28;20704;-58
2023/03/27 00:25:23;;;;;;;9.30;3.10;;;5.40;99.90;;;-141.84;79.56;19202.16;5069825;28;20310;-58
2023/03/27 00:27:52;;;;;;;8.40;3.37;;;5.50;99.90;;;-141.84;80.08;19214.34;5069929;28;20215;-58
2023/03/27 00:30:21;;;;;;;8.77;3.20;;;5.40;99.90;;;-141.84;79.36;19200.13;5070201;28;20719;-58
2023/03/27 00:32:49;;;;;;;7.60;2.97;;;5.50;99.90;;;-141.84;78.43;19212.31;5069454;28;20233;-58
2023/03/27 00:35:19;;;;;;;12.97;3.70;;;5.50;99.90;;;-141.84;78.80;19230.59;5069637;28;20255;-59
2023/03/27 00:37:47;;;;;;;7.60;3.37;;;5.50;99.90;;;-141.84;78.25;19236.69;5069769;28;20260;-58
2023/03/27 00:40:16;;;;;;;8.37;2.87;;;5.60;99.90;;;-141.84;78.20;19222.47;5069639;28;20232;-59
2023/03/27 00:42:45;;;;;;;10.90;3.00;;;5.60;99.90;;;-141.84;79.33;19214.34;5069969;28;20200;-60
2023/03/27 00:45:18;;;;;;;7.27;2.70;;;5.50;99.90;;;-141.84;78.00;19222.47;5070062;28;20207;-59
2023/03/27 00:47:52;;;;;;;7.93;3.10;;;5.60;99.90;;;-141.84;77.30;19244.81;5070341;28;20223;-58
2023/03/27 00:50:28;;;;;;;9.77;3.50;;;5.70;99.90;;;-141.84;78.20;19224.50;5073009;28;20722;-57
2023/03/27 00:53:04;;;;;;;7.93;3.23;;;5.70;99.90;;;-141.84;78.15;19250.91;5073167;28;20241;-58
2023/03/27 00:55:38;;;;;;;7.93;2.97;;;5.60;99.90;;;-141.84;76.63;19224.50;5073215;28;20237;-58
2023/03/27 00:58:13;;;;;;;6.37;2.83;;;5.70;99.90;;;-141.84;76.89;19214.34;5073395;28;20234;-58
2023/03/27 01:00:41;;;;;;;6.27;2.67;;;5.70;99.90;;;-141.84;76.00;19206.22;5071834;28;20215;-60
2023/03/27 01:03:11;;;;;;;9.10;3.10;;;5.70;99.90;;;-141.84;74.69;19242.78;5073198;28;20673;-57
2023/03/27 01:05:41;;;;;;;7.60;2.83;;;5.60;99.90;;;-141.84;74.01;19240.75;5072938;28;20239;-58
2023/03/27 01:08:11;;;;;;;7.13;2.43;;;5.70;99.90;;;-141.84;73.53;19248.88;5072910;28;20235;-59
2023/03/27 01:10:57;;;;;;;12.30;2.80;;;5.70;99.90;;;-141.84;72.29;19254.97;5072576;28;20726;-59
2023/03/27 01:13:55;;;;;;;8.90;2.40;;;5.70;99.90;;;-141.84;72.06;19297.66;5073131;28;20223;-59
2023/03/27 01:16:34;;;;;;;7.03;2.17;;;5.60;99.90;;;-141.84;71.59;19254.97;5072689;28;20255;-58
2023/03/27 01:19:31;;;;;;;5.80;2.30;;;5.70;99.90;;;-141.84;71.59;19267.16;5091185;28;20249;-59
2023/03/27 01:22:51;;;;;;;5.77;2.30;;;5.70;99.90;;;-141.84;72.71;19263.09;5081029;28;20219;-70
2023/03/27 01:25:49;;;;;;;8.70;2.10;;;5.60;99.90;;;-141.84;72.73;19242.78;5072443;28;20742;-70
2023/03/27 01:28:46;;;;;;;7.80;2.47;;;5.50;99.90;;;-141.84;72.43;19261.06;5060493;28;20242;-69
2023/03/27 01:31:36;;;;;;;9.80;2.63;;;5.60;99.90;;;-141.84;72.34;19236.69;5052339;28;20223;-70
2023/03/27 01:34:53;;;;;;;7.03;2.07;;;5.60;99.90;;;-141.84;70.76;19240.75;5052679;28;20231;-69
2023/03/27 01:38:14;;;;;;;9.57;2.40;;;5.60;99.90;;;-141.84;71.03;19224.50;5052337;28;20229;-70
2023/03/27 01:40:55;;;;;;;5.00;2.30;;;5.60;99.90;;;-141.84;70.90;19248.88;5052281;28;20239;-69
2023/03/27 01:43:35;;;;;;;9.47;2.40;;;5.50;99.90;;;-141.84;70.93;19238.72;5052339;28;20223;-69
2023/03/27 01:46:08;;;;;;;3.27;1.93;;;5.50;99.90;;;-141.84;70.67;19238.72;5052259;28;20223;-69
2023/03/27 01:48:45;;;;;;;7.47;2.10;;;5.40;99.90;;;-141.84;70.97;19244.81;5066561;28;20560;-70
2023/03/27 01:51:23;;;;;;;5.53;2.13;;;5.40;99.90;;;-141.84;70.85;19254.97;5072407;28;20207;-70
2023/03/27 01:53:58;;;;;;;4.07;1.90;;;5.70;99.90;;;-141.84;71.08;19208.25;5071875;28;20276;-70
2023/03/27 01:56:36;;;;;;;11.27;2.13;;;5.40;99.90;;;-141.84;71.44;19273.28;5057042;28;20250;-69
2023/03/27 01:59:12;;;;;;;6.50;2.17;;;5.60;99.90;;;-141.84;70.92;19267.16;5070015;28;20283;-69
2023/03/27 02:01:46;;;;;;;7.53;2.33;;;5.40;99.90;;;-141.84;69.64;19246.84;5071869;28;20235;-70
2023/03/27 02:04:20;;;;;;;9.60;2.43;;;5.40;99.90;;;-141.84;69.58;19261.06;5072174;28;20311;-69
2023/03/27 02:06:57;;;;;;;7.70;3.00;;;5.40;99.90;;;-141.84;68.34;19246.84;5071737;28;20840;-69
2023/03/27 02:09:33;;;;;;;6.27;2.40;;;5.40;99.90;;;-141.84;68.74;19263.09;5073815;28;20187;-70
2023/03/27 02:12:10;;;;;;;5.77;1.90;;;5.30;99.90;;;-141.84;68.40;19285.47;5071594;28;20640;-70
2023/03/27 02:14:44;;;;;;;4.20;1.90;;;5.40;99.90;;;-141.84;69.42;19269.22;5071513;28;20359;-69
2023/03/27 02:17:19;;;;;;;5.73;2.30;;;5.30;99.90;;;-141.84;69.47;19267.16;5070784;28;20231;-70
2023/03/27 02:19:58;;;;;;;5.87;1.93;;;5.30;99.90;;;-141.84;69.72;19246.84;5071544;28;20228;-70
2023/03/27 02:22:27;;;;;;;4.77;2.00;;;5.30;99.90;;;-141.84;70.05;19244.81;5070758;28;20609;-70
2023/03/27 02:25:28;;;;;;;5.43;2.00;;;5.30;99.90;;;-141.84;69.67;19263.09;5071331;28;20301;-69
2023/03/27 02:28:32;;;;;;;9.43;2.53;;;5.30;99.90;;;-141.84;69.89;19269.22;5071169;28;20207;-70
2023/03/27 02:31:11;;;;;;;7.23;1.93;;;5.30;99.90;;;-141.84;70.43;19220.44;5073149;28;20607;-70
2023/03/27 02:34:39;;;;;;;6.33;2.13;;;5.30;99.90;;;-141.84;70.70;19230.59;5091536;28;20383;-70
2023/03/27 02:37:20;;;;;;;5.60;2.60;;;5.20;99.90;;;-141.84;70.98;19224.50;5091346;28;20224;-70
2023/03/27 02:39:56;;;;;;;6.20;2.50;;;5.30;99.90;;;-141.84;72.06;19204.19;5091650;28;20187;-69
2023/03/27 02:42:34;;;;;;;7.57;2.00;;;5.20;99.90;;;-141.84;72.37;19230.59;5091849;28;20268;-69
2023/03/27 02:45:14;;;;;;;6.70;2.73;;;5.20;99.90;;;-141.84;72.29;19244.81;5075153;28;20223;-70
2023/03/27 02:47:48;;;;;;;7.10;2.10;;;5.20;99.90;;;-141.84;71.94;19228.56;5070548;28;20223;-69
2023/03/27 02:50:23;;;;;;;8.53;2.40;;;5.30;99.90;;;-141.84;72.83;19254.97;5070928;28;20242;-70
2023/03/27 02:52:59;;;;;;;8.10;2.30;;;5.20;99.90;;;-141.84;73.84;19226.53;5054640;28;20262;-69
2023/03/27 02:55:33;;;;;;;5.50;2.33;;;5.20;99.90;;;-141.84;72.85;19228.56;5051025;28;20226;-70
2023/03/27 02:58:07;;;;;;;6.67;2.20;;;5.20;99.90;;;-141.84;72.02;19230.59;5060337;28;20233;-70
2023/03/27 03:00:46;;;;;;;5.57;2.47;;;5.20;99.90;;;-141.84;72.97;19202.16;5071215;28;20194;-70
2023/03/27 03:03:26;;;;;;;5.03;2.40;;;5.20;99.90;;;-141.84;72.19;19244.81;5070594;28;20228;-70
2023/03/27 03:05:55;;;;;;;5.37;2.20;;;5.10;99.90;;;-141.84;72.08;19250.91;5070740;28;20226;-69
2023/03/27 03:08:29;;;;;;;6.20;1.90;;;5.10;99.90;;;-141.84;71.25;19232.63;5070621;28;20230;-70
2023/03/27 03:11:03;;;;;;;7.60;2.47;;;5.10;99.90;;;-141.84;71.28;19226.53;5070018;28;20222;-69
2023/03/27 03:13:31;;;;;;;4.93;2.13;;;5.10;99.90;;;-141.84;71.01;19224.50;5070366;28;20227;-70
2023/03/27 03:16:00;;;;;;;5.47;1.90;;;5.10;99.90;;;-141.84;71.36;19230.59;5070409;28;20201;-69
2023/03/27 03:18:29;;;;;;;7.37;2.77;;;5.00;99.90;;;-141.84;71.85;19210.28;5084440;28;20204;-70
2023/03/27 03:20:57;;;;;;;4.40;2.20;;;5.00;99.90;;;-141.84;71.80;19236.69;5087432;28;20586;-70
2023/03/27 03:23:25;;;;;;;4.70;2.50;;;5.00;99.90;;;-141.84;71.29;19214.34;5070032;28;20239;-69
2023/03/27 03:25:55;;;;;;;10.37;2.33;;;5.00;99.90;;;-141.84;71.97;19222.47;5070689;28;20279;-70
2023/03/27 03:28:25;;;;;;;8.27;2.40;;;5.00;99.90;;;-141.84;72.13;19210.28;5070323;28;20230;-70
2023/03/27 03:30:57;;;;;;;6.13;2.27;;;4.90;99.90;;;-141.84;72.48;19232.63;5070395;28;20309;-69
2023/03/27 03:33:28;;;;;;;5.77;2.20;;;4.90;99.90;;;-141.84;72.62;19228.56;5071021;28;20191;-69
2023/03/27 03:35:59;;;;;;;6.10;2.30;;;4.90;99.90;;;-141.84;72.26;19242.78;5070250;28;20276;-69
2023/03/27 03:38:29;;;;;;;7.47;2.37;;;4.90;99.90;;;-141.84;72.37;19196.06;5070034;28;20652;-70
2023/03/27 03:41:06;;;;;;;7.90;2.57;;;4.90;99.90;;;-141.84;73.89;19230.59;5070257;28;20230;-70
2023/03/27 03:43:35;;;;;;;4.97;2.20;;;4.90;99.90;;;-141.84;73.59;19206.22;5069984;28;20231;-69
2023/03/27 03:46:03;;;;;;;6.67;2.03;;;4.90;99.90;;;-141.84;73.47;19206.22;5070397;28;20229;-69
2023/03/27 03:48:33;;;;;;;6.87;2.00;;;4.80;99.90;;;-141.84;72.50;19230.59;5070416;28;20294;-69
2023/03/27 03:51:01;;;;;;;5.03;1.80;;;4.80;99.90;;;-141.84;72.25;19214.34;5069916;28;20266;-71
2023/03/27 03:53:29;;;;;;;5.13;1.90;;;4.80;99.90;;;-141.84;72.28;19216.38;5069972;28;20744;-69
2023/03/27 03:55:57;;;;;;;5.53;2.43;;;4.80;99.90;;;-141.84;72.12;19179.78;5070157;28;20229;-69
2023/03/27 03:58:25;;;;;;;4.93;2.10;;;4.70;99.90;;;-141.84;72.97;19198.09;5070080;28;20230;-68
2023/03/27 04:01:02;;;;;;;3.23;1.70;;;4.60;99.90;;;-141.84;71.73;19198.09;5069735;28;20251;-72
2023/03/27 04:03:32;;;;;;;2.93;1.43;;;4.60;99.90;;;-141.84;70.87;19198.09;5070471;28;20230;-71
2023/03/27 04:06:04;;;;;;;4.20;1.80;;;4.60;99.90;;;-141.84;71.60;19175.72;5070091;28;20236;-71
2023/03/27 04:08:33;;;;;;;3.33;1.93;;;4.40;99.90;;;-141.84;71.48;19194.03;5069862;28;20306;-69
2023/03/27 04:11:01;;;;;;;3.60;1.70;;;4.40;99.90;;;-141.84;71.25;19159.47;5069897;28;20775;-71
2023/03/27 04:13:30;;;;;;;3.63;1.50;;;4.40;99.90;;;-141.84;72.09;19167.59;5069927;28;20234;-72
2023/03/27 04:16:00;;;;;;;1.80;1.30;;;4.30;99.90;;;-141.84;72.16;19185.88;5070004;28;20202;-72
2023/03/27 04:18:31;;;;;;;2.57;1.50;;;4.20;99.90;;;-141.84;72.43;19181.81;5084034;28;20404;-70
2023/03/27 04:21:02;;;;;;;3.10;1.67;;;4.10;99.90;;;-141.84;72.13;19147.28;5086357;28;20805;-71
2023/03/27 04:23:30;;;;;;;2.07;1.40;;;4.10;99.90;;;-141.84;71.94;19169.63;5071214;28;20766;-70
2023/03/27 04:26:00;;;;;;;2.33;1.43;;;4.20;99.90;;;-141.84;73.24;19143.22;5073668;28;20228;-70
2023/03/27 04:28:33;;;;;;;1.83;1.47;;;4.00;99.90;;;-141.84;73.34;19153.38;5073819;28;20790;-71
2023/03/27 04:31:05;;;;;;;2.97;1.70;;;3.90;99.90;;;-141.84;73.42;19139.16;5073720;28;20229;-70
2023/03/27 04:33:34;;;;;;;3.60;1.43;;;3.90;99.90;;;-141.84;74.77;19147.28;5074110;28;20553;-69
2023/03/27 04:36:05;;;;;;;6.17;1.70;;;3.90;99.90;;;-141.84;74.64;19141.19;5073444;28;20259;-70
2023/03/27 04:38:38;;;;;;;3.40;1.70;;;3.80;99.90;;;-141.84;74.58;19135.09;5073397;28;20274;-69
2023/03/27 04:41:07;;;;;;;2.60;2.10;;;3.80;99.90;;;-141.84;75.25;19120.88;5073498;28;20233;-69
2023/03/27 04:43:36;;;;;;;3.50;1.70;;;3.70;99.90;;;-141.84;75.12;19120.88;5071622;28;20233;-70
2023/03/27 04:46:05;;;;;;;3.07;1.70;;;3.70;99.90;;;-141.84;74.16;19129.00;5053138;28;20226;-69
2023/03/27 04:48:36;;;;;;;3.33;1.50;;;3.70;99.90;;;-141.84;73.63;19163.53;5065429;28;20621;-59
2023/03/27 04:51:08;;;;;;;1.60;1.43;;;3.90;99.90;;;-141.84;73.92;19147.28;5073566;28;20202;-60
2023/03/27 04:53:37;;;;;;;2.90;1.50;;;3.90;99.90;;;-141.84;73.79;19143.22;5072929;28;20623;-60
2023/03/27 04:56:07;;;;;;;3.13;1.60;;;3.80;99.90;;;-141.84;73.36;19157.44;5073056;28;20235;-60
2023/03/27 04:58:35;;;;;;;3.97;1.83;;;3.80;99.90;;;-141.84;74.17;19139.16;5072976;28;20233;-59
2023/03/27 05:01:05;;;;;;;2.50;1.93;;;3.70;99.90;;;-141.84;73.80;19135.09;5072476;28;20886;-59
2023/03/27 05:03:34;;;;;;;3.07;1.73;;;3.70;99.90;;;-141.84;74.22;19131.03;5073387;28;20227;-60
2023/03/27 05:06:03;;;;;;;2.50;1.60;;;3.70;99.90;;;-141.84;74.26;19100.53;5072442;28;20312;-59
2023/03/27 05:08:33;;;;;;;2.73;1.80;;;3.60;99.90;;;-141.84;74.15;19155.41;5072920;28;20226;-59
2023/03/27 05:11:01;;;;;;;2.83;1.40;;;3.60;99.90;;;-141.84;74.36;19100.53;5072665;28;20648;-60
2023/03/27 05:13:29;;;;;;;2.70;1.40;;;3.50;99.90;;;-141.84;74.84;19098.50;5073595;28;20217;-60
2023/03/27 05:16:00;;;;;;;2.57;1.53;;;3.50;99.90;;;-141.84;74.84;19112.75;5072187;28;20662;-59
2023/03/27 05:18:29;;;;;;;1.77;1.60;;;3.50;99.90;;;-141.84;73.66;19126.97;5086576;28;20670;-59
2023/03/27 05:20:58;;;;;;;2.73;1.80;;;3.50;99.90;;;-141.84;72.86;19157.44;5089037;28;20246;-60
2023/03/27 05:23:26;;;;;;;2.57;1.70;;;3.50;99.90;;;-141.84;72.83;19194.03;5072315;28;20290;-59
2023/03/27 05:25:57;;;;;;;2.97;1.43;;;3.60;99.90;;;-141.84;72.67;19120.88;5072419;28;20236;-60
2023/03/27 05:28:28;;;;;;;2.77;1.70;;;3.70;99.90;;;-141.84;72.79;19137.13;5072463;28;20658;-59
2023/03/27 05:30:56;;;;;;;3.57;1.67;;;3.60;99.90;;;-141.84;73.23;19147.28;5072234;28;20205;-60
2023/03/27 05:33:25;;;;;;;2.83;1.70;;;3.60;99.90;;;-141.84;73.99;19147.28;5072385;28;20248;-58
2023/03/27 05:35:53;;;;;;;1.70;1.30;;;3.60;99.90;;;-141.84;72.67;19139.16;5071983;28;20754;-58
2023/03/27 05:38:23;;;;;;;3.03;1.60;;;3.60;99.90;;;-141.84;72.81;19114.78;5072182;28;20235;-59
2023/03/27 05:40:52;;;;;;;4.10;1.77;;;3.70;99.90;;;-141.84;73.40;19135.09;5061871;28;20716;-59
2023/03/27 05:43:21;;;;;;;2.30;1.63;;;3.60;99.90;;;-141.84;73.45;19120.88;5052036;28;20658;-60
2023/03/27 05:45:50;;;;;;;2.10;1.70;;;3.70;99.90;;;-141.84;71.90;19145.25;5052095;28;20209;-59
2023/03/27 05:48:18;;;;;;;2.73;1.70;;;3.70;99.90;;;-141.84;71.65;19157.44;5062484;28;20222;-59
2023/03/27 05:50:46;;;;;;;2.33;1.50;;;3.80;99.90;;;-141.84;71.89;19175.72;5070971;28;20728;-60
2023/03/27 05:53:15;;;;;;;4.10;1.77;;;3.90;99.90;;;-141.84;72.55;19153.38;5071038;28;20321;-60
2023/03/27 05:55:43;;;;;;;6.83;2.17;;;3.90;99.90;;;-141.84;71.99;19149.31;5070813;28;20238;-61
2023/03/27 05:58:12;;;;;;;2.67;2.00;;;4.00;99.90;;;-141.84;72.01;19141.19;5071090;28;20222;-59
2023/03/27 06:00:43;;;;;;;3.13;1.40;;;4.00;99.90;;;-141.84;71.90;19155.41;5071407;28;20219;-61
2023/03/27 06:03:13;;;;;;;3.10;1.63;;;4.00;99.90;;;-141.84;70.49;19167.59;5071399;28;20753;-59
2023/03/27 06:05:43;;;;;;;3.90;2.30;;;4.00;99.90;;;-141.84;70.63;19167.59;5070879;28;20228;-59
2023/03/27 06:08:11;;;;;;;2.27;1.80;;;3.90;99.90;;;-141.84;71.53;19135.09;5070624;28;20234;-59
2023/03/27 06:10:42;;;;;;;3.00;1.77;;;3.90;99.90;;;-141.84;71.78;19139.16;5070514;28;20232;-59
2023/03/27 06:13:13;;;;;;;4.90;2.10;;;3.90;99.90;;;-141.84;70.88;19126.97;5070792;28;20300;-59
2023/03/27 06:15:45;;;;;;;2.17;1.60;;;3.80;99.90;;;-141.84;69.67;19143.22;5070763;28;20196;-60
2023/03/27 06:18:13;;;;;;;3.00;1.80;;;3.80;99.90;;;-141.84;69.94;19126.97;5083577;28;20189;-58
2023/03/27 06:20:42;;;;;;;2.30;1.67;;;3.90;99.90;;;-141.84;69.62;19187.91;5085121;28;20225;-54
2023/03/27 06:23:10;;;;;;;2.27;1.53;;;3.90;99.90;;;-141.84;69.21;19171.66;5066574;28;20650;-55
2023/03/27 06:25:39;;;;;;;2.47;1.80;;;4.30;99.90;;;-141.84;67.98;19181.81;5068571;28;20603;-56
2023/03/27 06:28:08;;;;;;;2.70;2.00;;;4.30;99.90;;;-141.84;66.59;19216.38;5070615;28;20226;-55
2023/03/27 06:30:37;;;;;;;4.90;2.27;;;4.40;99.90;;;-141.84;66.67;19194.03;5071157;28;20254;-54
2023/03/27 06:33:07;;;;;;;5.40;2.40;;;4.40;99.90;;;-141.84;67.40;19196.06;5070716;28;20291;-57
2023/03/27 06:35:36;;;;;;;7.40;2.83;;;4.30;99.90;;;-141.84;67.14;19222.47;5070091;28;20238;-55
2023/03/27 06:38:05;;;;;;;3.50;2.20;;;4.30;99.90;;;-141.84;66.03;19206.22;5048822;28;20303;-57
2023/03/27 06:40:35;;;;;;;4.17;2.13;;;4.50;99.90;;;-141.84;66.33;19187.91;5050580;28;20225;-56
2023/03/27 06:43:06;;;;;;;6.30;2.60;;;4.30;99.90;;;-141.84;66.47;19175.72;5060257;28;20242;-57
2023/03/27 06:45:37;;;;;;;5.43;2.33;;;4.30;99.90;;;-141.84;65.07;19194.03;5070269;28;20202;-58
2023/03/27 06:48:07;;;;;;;5.90;2.20;;;4.30;99.90;;;-141.84;65.74;19228.56;5069739;28;20254;-55
2023/03/27 06:50:48;;;;;;;5.03;1.90;;;4.40;99.90;;;-141.84;65.72;19204.19;5069101;28;20777;-54
2023/03/27 06:53:18;;;;;;;2.67;2.07;;;4.50;99.90;;;-141.84;65.65;19240.75;5069796;28;20239;-57
2023/03/27 06:55:50;;;;;;;4.53;2.00;;;4.60;99.90;;;-141.84;65.13;19244.81;5073779;28;20227;-56
2023/03/27 06:58:18;;;;;;;5.70;2.30;;;4.70;99.90;;;-141.84;63.15;19208.25;5069427;28;20276;-55
2023/03/27 07:00:48;;;;;;;4.13;2.00;;;4.60;99.90;;;-141.84;63.78;19216.38;5068442;28;20203;-56
2023/03/27 07:03:21;;;;;;;5.07;1.90;;;4.70;99.90;;;-141.84;63.78;19257.00;5070310;28;20245;-54
2023/03/27 07:05:49;;;;;;;2.87;2.00;;;4.80;99.90;;;-141.84;63.35;19216.38;5069794;28;20287;-57
2023/03/27 07:08:19;;;;;;;3.90;1.63;;;4.70;99.90;;;-141.84;64.64;19265.13;5069892;28;20234;-57
2023/03/27 07:10:52;;;;;;;4.27;2.10;;;4.60;99.90;;;-141.84;64.41;19232.63;5069870;28;20230;-56
2023/03/27 07:13:37;;;;;;;4.37;1.90;;;4.60;99.90;;;-141.84;64.10;19244.81;5069713;28;20225;-54
2023/03/27 07:16:07;;;;;;;4.50;2.00;;;4.70;99.90;;;-141.84;63.56;19238.72;5069645;28;20224;-55
2023/03/27 07:18:37;;;;;;;5.23;1.60;;;4.70;99.90;;;-141.84;61.90;19250.91;5084580;28;20550;-53
2023/03/27 07:21:07;;;;;;;3.43;1.73;;;4.80;99.90;;;-141.84;62.58;19279.38;5085098;28;20662;-57
2023/03/27 07:23:35;;;;;;;2.67;1.70;;;4.80;99.90;;;-141.84;62.23;19246.84;5069603;28;20232;-57
2023/03/27 07:26:03;;;;;;;4.13;1.97;;;4.80;99.90;;;-141.84;62.18;19263.09;5069174;28;20718;-60
2023/03/27 07:28:32;;;;;;;4.67;1.80;;;4.80;99.90;;;-141.84;61.46;19291.56;5069321;28;20460;-54
2023/03/27 07:31:00;;;;;;;4.73;1.70;;;4.90;99.90;;;-141.84;60.77;19277.34;5069535;28;21278;-55
2023/03/27 07:33:28;;;;;;;2.83;1.40;;;5.00;99.90;;;-141.84;60.77;19275.31;5061759;28;20298;-58
2023/03/27 07:35:57;;;;;;;5.17;1.43;;;5.10;99.90;;;-141.84;60.38;19317.97;5069575;28;20628;-55
2023/03/27 07:38:26;;;;;;;3.97;1.43;;;5.10;99.90;;;-141.84;59.70;19299.69;5069614;28;20219;-56
2023/03/27 07:40:54;;;;;;;3.17;1.33;;;5.10;99.90;;;-141.84;59.06;19265.13;5069617;28;20280;-54
2023/03/27 07:43:22;;;;;;;3.57;1.50;;;5.00;99.90;;;-141.84;58.79;19303.75;5069484;28;20280;-55
2023/03/27 07:45:50;;;;;;;3.67;1.33;;;5.00;99.90;;;-141.84;59.13;19281.41;5069327;28;20222;-55
2023/03/27 07:48:18;;;;;;;3.20;1.37;;;4.80;99.90;;;-141.84;59.15;19295.63;5070262;28;20321;-53
2023/03/27 07:50:46;;;;;;;3.90;1.57;;;4.90;99.90;;;-141.84;57.59;19305.78;5069682;28;20238;-53
2023/03/27 07:53:18;;;;;;;2.23;1.20;;;5.00;99.90;;;-141.84;56.80;19313.91;5069576;28;20699;-55
2023/03/27 07:56:02;;;;;;;2.00;1.20;;;5.20;99.90;;;-141.84;56.93;19360.66;5069766;28;20226;-55
2023/03/27 07:58:30;;;;;;;2.13;1.00;;;5.30;99.90;;;-141.84;56.79;19383.00;5073169;28;20624;-55
2023/03/27 08:01:00;;;;;;;2.70;1.30;;;5.50;99.90;;;-141.84;54.91;19411.44;5073633;28;20221;-55
2023/03/27 08:03:30;;;;;;;3.13;1.20;;;5.80;99.90;;;-141.84;54.86;19368.78;5073941;28;20193;-54
2023/03/27 08:06:00;;;;;;;2.57;1.30;;;5.90;99.90;;;-141.84;55.52;19374.88;5073365;28;20249;-56
2023/03/27 08:08:30;;;;;;;3.00;0.90;;;5.80;99.90;;;-141.84;54.25;19374.88;5073502;28;20742;-55
2023/03/27 08:11:01;;;;;;;2.43;0.80;;;5.70;99.90;;;-141.84;54.40;19360.66;5073417;28;20238;-53
2023/03/27 08:13:29;;;;;;;2.10;1.07;;;5.70;99.90;;;-141.84;53.53;19372.84;5072780;28;20223;-57
2023/03/27 08:16:07;;;;;;;4.47;1.20;;;5.60;99.90;;;-141.84;53.81;19372.84;5072159;28;20199;-59
2023/03/27 08:18:36;;;;;;;2.30;1.10;;;5.60;99.90;;;-141.84;53.81;19391.13;5072775;28;20211;-55
2023/03/27 08:21:08;;;;;;;2.63;0.87;;;5.70;99.90;;;-141.84;53.55;19397.22;5071453;28;20231;-55
2023/03/27 08:23:39;;;;;;;2.63;1.30;;;5.70;99.90;;;-141.84;53.62;19411.44;5072573;28;20271;-52
2023/03/27 08:26:08;;;;;;;1.33;1.00;;;5.80;99.90;;;-141.84;54.12;19409.41;5072392;28;20246;-54
2023/03/27 08:28:37;;;;;;;4.57;1.20;;;6.00;99.90;;;-141.84;53.32;19419.59;5070997;28;20220;-55
2023/03/27 08:31:11;;;;;;;3.83;1.50;;;6.10;99.90;;;-141.84;53.18;19435.84;5068113;28;20231;-54
2023/03/27 08:33:42;;;;;;;4.80;1.30;;;6.20;99.90;;;-141.84;52.92;19468.34;5073020;28;20200;-54
2023/03/27 08:36:13;;;;;;;4.50;1.70;;;6.30;99.90;;;-141.84;52.92;19482.56;5073070;28;20583;-55
2023/03/27 08:38:43;;;;;;;4.07;1.40;;;6.50;99.90;;;-141.84;52.77;19490.72;5072658;28;20228;-57
2023/03/27 08:41:27;;;;;;;4.43;1.30;;;6.60;99.90;;;-141.84;52.69;19443.97;5072524;28;20254;-54
2023/03/27 08:43:58;;;;;;;5.03;1.20;;;6.60;99.90;;;-141.84;52.44;19472.41;5072483;28;20240;-55
2023/03/27 08:46:33;;;;;;;5.50;1.53;;;6.70;99.90;;;-141.84;52.38;19474.44;5070288;28;20217;-53
2023/03/27 08:49:11;;;;;;;3.07;1.60;;;6.60;99.90;;;-141.84;52.26;19494.78;5071323;28;20219;-55
2023/03/27 08:51:47;;;;;;;1.53;1.27;;;6.50;99.90;;;-141.84;52.64;19474.44;5069700;28;20192;-57
2023/03/27 08:54:21;;;;;;;4.23;1.30;;;6.40;99.90;;;-141.84;51.97;19411.44;5071418;28;20212;-53
2023/03/27 08:56:50;;;;;;;4.27;1.43;;;6.30;99.90;;;-141.84;51.52;19439.91;5067783;28;20230;-56
2023/03/27 08:59:22;;;;;;;2.97;1.13;;;6.30;99.90;;;-141.84;50.81;19470.38;5071085;28;20234;-57
2023/03/27 09:02:01;;;;;;;3.47;1.30;;;6.40;99.90;;;-141.84;49.99;19504.94;5070989;28;20250;-58
2023/03/27 09:04:45;;;;;;;3.40;1.20;;;6.60;99.90;;;-141.84;50.38;19529.31;5071072;28;20239;-55
2023/03/27 09:07:23;;;;;;;3.17;1.23;;;6.90;99.90;;;-141.84;48.91;19500.88;5070531;28;20227;-55
2023/03/27 09:10:04;;;;;;;4.83;1.80;;;6.90;99.90;;;-141.84;49.29;19523.22;5066466;28;20259;-55
2023/03/27 09:12:59;;;;;;;7.40;1.97;;;6.90;99.90;;;-141.84;51.35;19496.81;5064159;28;20545;-56
2023/03/27 09:15:32;;;;;;;5.50;1.53;;;6.70;99.90;;;-141.84;50.97;19506.97;5051336;28;20216;-58
2023/03/27 09:18:09;;;;;;;5.80;1.40;;;6.80;99.90;;;-141.84;49.97;19541.50;5050523;28;20768;-54
2023/03/27 09:20:44;;;;;;;3.37;1.47;;;6.90;99.90;;;-141.84;48.24;19606.53;5050655;28;20216;-56
2023/03/27 09:23:19;;;;;;;3.70;1.23;;;7.10;99.90;;;-141.84;46.46;19574.03;5050044;28;20224;-58
2023/03/27 09:25:56;;;;;;;4.50;1.30;;;7.10;99.90;;;-141.84;47.99;19543.53;5050645;28;20233;-53
2023/03/27 09:28:32;;;;;;;3.63;1.50;;;7.10;99.90;;;-141.84;46.76;19606.53;5050529;28;20307;-56
2023/03/27 09:31:20;;;;;;;3.13;1.40;;;7.20;99.90;;;-141.84;46.12;19582.16;5050221;28;20228;-55
2023/03/27 09:33:49;;;;;;;8.30;1.73;;;7.30;99.90;;;-141.84;46.87;19592.31;5046895;28;20197;-51
2023/03/27 09:36:17;;;;;;;4.33;1.30;;;7.40;99.90;;;-141.84;46.46;19610.59;5050744;28;20197;-54
2023/03/27 09:38:50;;;;;;;5.80;1.23;;;7.50;99.90;;;-141.84;44.69;19637.03;5050209;28;20225;-56
2023/03/27 09:41:26;;;;;;;2.40;1.30;;;7.40;99.90;;;-141.84;45.74;19551.69;5050568;28;20213;-56
2023/03/27 09:44:03;;;;;;;3.80;1.10;;;7.30;99.90;;;-141.84;44.66;19645.16;5048491;28;20228;-56
2023/03/27 09:46:36;;;;;;;3.27;1.10;;;7.50;99.90;;;-141.84;44.24;19626.88;5048408;28;20278;-56
2023/03/27 09:49:12;;;;;;;3.77;1.20;;;7.50;99.90;;;-141.84;44.83;19569.97;5050257;28;20229;-58
2023/03/27 09:51:46;;;;;;;2.90;1.40;;;7.50;99.90;;;-141.84;45.02;19563.88;5045721;28;20562;-58
2023/03/27 09:54:18;;;;;;;2.53;1.33;;;7.30;99.90;;;-141.84;44.94;19576.06;5050651;28;20235;-56
2023/03/27 09:56:52;;;;;;;3.63;1.20;;;7.20;99.90;;;-141.84;44.19;19655.31;5049786;28;20244;-57
2023/03/27 09:59:28;;;;;;;2.17;1.00;;;7.40;99.90;;;-141.84;44.50;19626.88;5047028;28;20345;-57
2023/03/27 10:01:58;;;;;;;4.90;1.40;;;7.50;99.90;;;-141.84;43.16;19582.16;5049598;28;20708;-57
2023/03/27 10:04:29;;;;;;;2.73;1.20;;;7.30;99.90;;;-141.84;43.23;19614.66;5049631;28;20669;-56
2023/03/27 10:07:00;;;;;;;2.87;1.20;;;7.30;99.90;;;-141.84;43.52;19606.53;5050082;28;20209;-57
2023/03/27 10:09:33;;;;;;;4.13;1.20;;;7.40;99.90;;;-141.84;43.85;19637.03;5050338;28;20573;-58
2023/03/27 10:12:10;;;;;;;4.70;1.30;;;7.50;99.90;;;-141.84;43.33;19681.75;5041838;28;20226;-55
2023/03/27 10:14:43;;;;;;;3.50;1.33;;;7.90;99.90;;;-141.84;42.42;19720.34;5049007;28;20719;-56
2023/03/27 10:17:24;;;;;;;3.33;1.40;;;8.20;99.90;;;-141.84;42.96;19736.59;5045634;28;20253;-57
2023/03/27 10:20:07;;;;;;;3.00;1.50;;;8.30;99.90;;;-141.84;43.63;19726.44;5049671;28;20229;-56
2023/03/27 10:22:40;;;;;;;3.90;1.30;;;8.40;99.90;;;-141.84;44.95;19704.09;5048226;28;20244;-57
2023/03/27 10:25:19;;;;;;;2.37;1.10;;;8.30;99.90;;;-141.84;46.62;19647.19;5048714;28;20225;-55
2023/03/27 10:27:48;;;;;;;3.57;1.60;;;8.10;99.90;;;-141.84;46.89;19659.38;5047430;28;20574;-55
2023/03/27 10:30:31;;;;;;;4.03;1.50;;;7.90;99.90;;;-141.84;46.19;19718.31;5045346;28;20201;-54
2023/03/27 10:33:00;;;;;;;2.70;1.33;;;8.20;99.90;;;-141.84;44.38;19758.97;5040600;28;20228;-55
2023/03/27 10:35:34;;;;;;;2.83;1.43;;;8.30;99.90;;;-141.84;45.36;19726.44;5044809;28;20213;-58
2023/03/27 10:38:12;;;;;;;2.20;1.20;;;8.40;99.90;;;-141.84;47.91;19649.22;5049070;28;20228;-51